createdAt,value
2023-03-17T00:01:17.162Z,2.08
2023-03-17T00:03:46.354Z,1.95
2023-03-17T00:06:17.757Z,1.80
2023-03-17T00:08:46.293Z,1.55
2023-03-17T00:11:16.070Z,2.15
2023-03-17T00:13:44.586Z,1.98
2023-03-17T00:16:17.140Z,2.17
2023-03-17T00:18:44.766Z,1.83
2023-03-17T00:21:17.506Z,2.08
2023-03-17T00:23:49.695Z,1.58
2023-03-17T00:26:16.589Z,2.10
2023-03-17T00:28:43.308Z,2.92
2023-03-17T00:31:15.247Z,2.40
2023-03-17T00:33:43.231Z,3.15
2023-03-17T00:36:15.744Z,3.85
2023-03-17T00:38:42.603Z,3.95
2023-03-17T00:41:10.874Z,3.78
2023-03-17T00:43:37.382Z,3.78
2023-03-17T00:46:14.744Z,4.78
2023-03-17T00:48:43.501Z,4.32
2023-03-17T00:51:11.430Z,2.80
2023-03-17T00:53:38.009Z,3.55
2023-03-17T00:56:11.861Z,3.03
2023-03-17T00:58:38.410Z,3.50
2023-03-17T01:01:05.184Z,3.33
2023-03-17T01:03:33.092Z,3.65
2023-03-17T01:06:00.468Z,4.10
2023-03-17T01:08:30.088Z,3.25
2023-03-17T01:10:57.281Z,3.75
2023-03-17T01:13:24.312Z,4.30
2023-03-17T01:15:52.413Z,3.72
2023-03-17T01:18:22.776Z,3.42
2023-03-17T01:20:50.573Z,3.22
2023-03-17T01:23:17.629Z,3.75
2023-03-17T01:25:44.599Z,3.50
2023-03-17T01:28:16.793Z,3.38
2023-03-17T01:30:43.773Z,4.38
2023-03-17T01:33:13.467Z,3.58
2023-03-17T01:35:41.923Z,3.78
2023-03-17T01:38:09.908Z,3.97
2023-03-17T01:40:42.632Z,4.05
2023-03-17T01:54:48.302Z,3.00
2023-03-17T01:59:55.578Z,3.13
2023-03-17T02:02:28.932Z,3.67
2023-03-17T02:04:55.515Z,3.75
2023-03-17T02:07:24.025Z,3.22
2023-03-17T02:09:52.619Z,4.00
2023-03-17T02:12:22.447Z,3.75
2023-03-17T02:14:48.995Z,3.63
2023-03-17T02:17:15.544Z,2.90
2023-03-17T02:19:42.534Z,3.78
2023-03-17T02:22:09.253Z,3.92
2023-03-17T02:27:18.096Z,5.53
2023-03-17T02:29:46.439Z,5.63
2023-03-17T02:32:15.805Z,4.82
2023-03-17T02:34:42.394Z,5.00
2023-03-17T02:37:09.244Z,3.90
2023-03-17T02:39:36.398Z,3.30
2023-03-17T02:42:04.172Z,4.55
2023-03-17T02:44:31.487Z,4.22
2023-03-17T02:46:59.092Z,3.30
2023-03-17T02:49:27.287Z,3.45
2023-03-17T02:51:54.273Z,3.88
2023-03-17T02:54:20.868Z,3.88
2023-03-17T02:56:47.413Z,3.80
2023-03-17T02:59:14.008Z,3.15
2023-03-17T03:01:40.637Z,4.03
2023-03-17T03:04:07.505Z,4.38
2023-03-17T03:06:34.438Z,3.80
2023-03-17T03:09:01.003Z,3.45
2023-03-17T03:11:29.346Z,2.97
2023-03-17T03:13:56.259Z,3.25
2023-03-17T03:16:22.972Z,4.95
2023-03-17T03:18:49.619Z,3.60
2023-03-17T03:21:16.194Z,2.83
2023-03-17T03:23:43.340Z,4.13
2023-03-17T03:26:09.922Z,3.28
2023-03-17T03:28:36.485Z,3.75
2023-03-17T03:31:03.435Z,4.13
2023-03-17T03:33:30.026Z,4.20
2023-03-17T03:35:57.042Z,4.75
2023-03-17T03:38:23.666Z,4.97
2023-03-17T03:40:50.177Z,5.00
2023-03-17T03:43:23.400Z,5.30
2023-03-17T03:45:51.377Z,5.50
2023-03-17T03:48:18.535Z,6.55
2023-03-17T03:50:45.721Z,6.63
2023-03-17T03:53:12.278Z,6.03
2023-03-17T03:55:38.825Z,6.20
2023-03-17T03:58:05.417Z,6.47
2023-03-17T04:00:33.037Z,4.95
2023-03-17T04:03:00.657Z,4.00
2023-03-17T04:05:27.368Z,6.07
2023-03-17T04:07:54.084Z,4.57
2023-03-17T04:10:20.651Z,4.60
2023-03-17T04:12:47.288Z,4.30
2023-03-17T04:15:16.869Z,4.43
2023-03-17T04:17:44.464Z,4.68
2023-03-17T04:20:13.228Z,4.32
2023-03-17T04:22:41.750Z,3.92
2023-03-17T04:25:10.322Z,3.78
2023-03-17T04:27:37.521Z,3.90
2023-03-17T04:30:05.466Z,4.32
2023-03-17T04:32:32.251Z,4.13
2023-03-17T04:34:58.890Z,3.25
2023-03-17T04:37:25.742Z,4.40
2023-03-17T04:39:52.339Z,3.20
2023-03-17T04:42:19.205Z,3.00
2023-03-17T04:44:46.236Z,3.38
2023-03-17T04:47:12.781Z,3.42
2023-03-17T04:49:39.495Z,3.38
2023-03-17T04:52:06.785Z,3.03
2023-03-17T04:54:33.360Z,3.60
2023-03-17T04:56:59.968Z,3.40
2023-03-17T04:59:27.368Z,1.77
2023-03-17T05:01:53.919Z,2.55
2023-03-17T05:04:31.144Z,3.00
2023-03-17T05:06:58.292Z,2.90
2023-03-17T05:09:26.924Z,3.10
2023-03-17T05:11:53.576Z,2.40
2023-03-17T05:14:20.522Z,2.67
2023-03-17T05:16:48.471Z,4.18
2023-03-17T05:19:16.411Z,2.88
2023-03-17T05:21:43.008Z,2.58
2023-03-17T05:24:09.977Z,2.90
2023-03-17T05:26:36.561Z,2.38
2023-03-17T05:29:03.529Z,2.25
2023-03-17T05:31:31.102Z,2.60
2023-03-17T05:33:58.874Z,2.78
2023-03-17T05:36:25.572Z,2.53
2023-03-17T05:38:52.488Z,3.03
2023-03-17T05:41:19.329Z,2.13
2023-03-17T05:43:46.140Z,2.38
2023-03-17T05:46:13.017Z,2.60
2023-03-17T05:48:39.612Z,2.05
2023-03-17T05:51:06.596Z,2.72
2023-03-17T05:53:33.397Z,3.05
2023-03-17T05:55:59.921Z,3.47
2023-03-17T05:58:26.936Z,3.58
2023-03-17T06:00:53.662Z,3.08
2023-03-17T06:03:21.450Z,2.75
2023-03-17T06:05:48.256Z,2.30
2023-03-17T06:08:15.057Z,1.42
2023-03-17T06:10:43.115Z,2.92
2023-03-17T06:13:11.123Z,2.88
2023-03-17T06:15:37.852Z,2.35
2023-03-17T06:18:05.705Z,2.45
2023-03-17T06:20:33.159Z,2.38
2023-03-17T06:23:05.563Z,2.47
2023-03-17T06:25:34.463Z,2.75
2023-03-17T06:28:02.882Z,3.00
2023-03-17T06:30:30.799Z,1.42
2023-03-17T06:32:57.396Z,2.63
2023-03-17T06:35:24.802Z,2.13
2023-03-17T06:37:51.687Z,2.33
2023-03-17T06:40:18.369Z,3.03
2023-03-17T06:42:45.065Z,2.60
2023-03-17T06:45:12.925Z,2.55
2023-03-17T06:47:39.820Z,2.20
2023-03-17T06:50:09.712Z,2.17
2023-03-17T06:52:37.283Z,2.50
2023-03-17T06:55:04.484Z,1.08
2023-03-17T06:57:31.811Z,2.90
2023-03-17T06:59:58.844Z,3.25
2023-03-17T07:02:25.565Z,3.03
2023-03-17T07:04:52.335Z,3.20
2023-03-17T07:07:20.836Z,2.75
2023-03-17T07:09:47.914Z,3.30
2023-03-17T07:12:14.683Z,1.95
2023-03-17T07:14:41.774Z,2.10
2023-03-17T07:17:12.921Z,2.90
2023-03-17T07:19:40.656Z,3.60
2023-03-17T07:22:08.212Z,2.78
2023-03-17T07:24:34.789Z,1.63
2023-03-17T07:27:01.476Z,3.20
2023-03-17T07:29:29.314Z,3.42
2023-03-17T07:31:56.102Z,3.47
2023-03-17T07:34:23.209Z,4.32
2023-03-17T07:36:49.837Z,3.50
2023-03-17T07:39:16.755Z,2.35
2023-03-17T07:41:44.291Z,4.10
2023-03-17T07:44:11.502Z,3.75
2023-03-17T07:46:39.071Z,2.97
2023-03-17T07:49:06.292Z,3.65
2023-03-17T07:51:33.119Z,3.65
2023-03-17T07:54:04.015Z,3.35
2023-03-17T07:56:32.869Z,3.33
2023-03-17T07:58:59.992Z,3.95
2023-03-17T08:01:27.963Z,3.60
2023-03-17T08:03:55.703Z,2.53
2023-03-17T08:06:24.577Z,2.78
2023-03-17T08:08:52.436Z,3.13
2023-03-17T08:11:20.060Z,2.58
2023-03-17T08:13:47.906Z,1.40
2023-03-17T08:16:14.468Z,2.45
2023-03-17T08:18:41.168Z,2.88
2023-03-17T08:21:07.995Z,3.17
2023-03-17T08:23:34.698Z,3.05
2023-03-17T08:26:03.328Z,2.45
2023-03-17T08:28:30.717Z,2.72
2023-03-17T08:31:17.163Z,2.55
2023-03-17T08:33:48.732Z,3.22
2023-03-17T08:36:18.619Z,2.67
2023-03-17T08:38:46.685Z,2.63
2023-03-17T08:41:16.713Z,2.78
2023-03-17T08:43:43.973Z,2.20
2023-03-17T08:48:56.533Z,2.05
2023-03-17T08:51:26.690Z,1.30
2023-03-17T08:53:54.996Z,1.70
2023-03-17T08:56:22.703Z,1.10
2023-03-17T08:58:49.505Z,1.27
2023-03-17T09:01:17.263Z,1.33
2023-03-17T09:03:45.221Z,1.05
2023-03-17T09:06:12.380Z,1.27
2023-03-17T09:08:44.541Z,2.03
2023-03-17T09:11:14.166Z,1.70
2023-03-17T09:13:41.516Z,1.90
2023-03-17T09:16:08.951Z,1.67
2023-03-17T09:18:35.946Z,1.38
2023-03-17T09:21:03.692Z,1.67
2023-03-17T09:23:30.284Z,1.23
2023-03-17T09:25:57.237Z,1.55
2023-03-17T09:28:24.675Z,1.45
2023-03-17T09:30:51.589Z,1.30
2023-03-17T09:33:19.026Z,1.05
2023-03-17T09:35:45.608Z,0.93
2023-03-17T09:38:12.834Z,1.40
2023-03-17T09:40:48.037Z,0.93
2023-03-17T09:45:52.255Z,0.80
2023-03-17T09:48:44.791Z,1.63
2023-03-17T09:51:15.528Z,1.00
2023-03-17T09:53:51.409Z,1.67
2023-03-17T09:56:20.047Z,0.95
2023-03-17T09:58:52.984Z,1.45
2023-03-17T10:01:19.945Z,1.35
2023-03-17T10:03:47.548Z,2.42
2023-03-17T10:06:36.834Z,1.00
2023-03-17T10:11:44.196Z,1.05
2023-03-17T10:14:28.661Z,0.93
2023-03-17T10:17:05.842Z,1.00
2023-03-17T10:19:41.724Z,1.00
2023-03-17T10:24:57.649Z,2.75
2023-03-17T10:27:24.945Z,2.40
2023-03-17T10:29:51.645Z,0.63
2023-03-17T10:32:18.222Z,2.78
2023-03-17T10:34:45.104Z,2.72
2023-03-17T10:39:53.504Z,0.73
2023-03-17T10:45:20.814Z,0.82
2023-03-17T10:47:50.085Z,1.90
2023-03-17T10:53:27.946Z,1.42
2023-03-17T10:56:01.067Z,1.20
2023-03-17T11:01:17.888Z,0.80
2023-03-17T11:03:44.572Z,1.35
2023-03-17T11:06:14.954Z,0.82
2023-03-17T11:08:49.675Z,1.05
2023-03-17T11:11:35.429Z,1.33
2023-03-17T11:22:16.706Z,1.40
2023-03-17T11:24:56.879Z,1.02
2023-03-17T11:27:36.966Z,0.75
2023-03-17T11:32:50.937Z,2.63
2023-03-17T11:38:22.387Z,0.95
2023-03-17T11:46:50.710Z,0.82
2023-03-17T11:52:03.970Z,0.82
2023-03-17T12:03:08.744Z,0.70
2023-03-17T12:05:37.275Z,1.17
2023-03-17T12:10:46.293Z,2.15
2023-03-17T12:13:19.561Z,2.28
2023-03-17T12:15:52.905Z,3.22
2023-03-17T12:18:34.756Z,2.17
2023-03-17T12:21:11.970Z,2.47
2023-03-17T12:27:05.977Z,0.90
2023-03-17T12:32:26.451Z,0.82
2023-03-17T12:34:57.490Z,1.35
2023-03-17T12:37:27.514Z,2.10
2023-03-17T12:42:42.584Z,1.33
2023-03-17T12:51:06.880Z,0.80
2023-03-17T12:53:36.772Z,1.63
2023-03-17T12:58:45.212Z,3.08
2023-03-17T13:04:27.858Z,1.42
2023-03-17T13:23:42.701Z,1.27
2023-03-17T13:26:13.333Z,0.80
2023-03-17T13:28:43.758Z,0.82
2023-03-17T13:31:35.460Z,1.05
2023-03-17T13:36:47.990Z,1.73
2023-03-17T13:39:54.546Z,1.65
2023-03-17T13:45:34.500Z,2.20
2023-03-17T13:48:37.513Z,2.33
2023-03-17T13:53:49.551Z,0.98
2023-03-17T13:56:22.448Z,0.80
2023-03-17T13:59:05.978Z,0.80
2023-03-17T14:01:40.849Z,0.75
2023-03-17T14:04:17.661Z,0.75
2023-03-17T14:06:46.785Z,0.93
2023-03-17T14:09:38.034Z,1.13
2023-03-17T14:12:36.793Z,0.98
2023-03-17T14:15:16.525Z,1.00
2023-03-17T14:17:50.357Z,0.88
2023-03-17T14:22:57.400Z,0.80
2023-03-17T14:25:30.890Z,0.65
2023-03-17T14:27:58.358Z,0.75
2023-03-17T14:30:28.675Z,0.73
2023-03-17T14:33:02.186Z,1.02
2023-03-17T14:35:32.151Z,1.40
2023-03-17T14:38:00.311Z,0.73
2023-03-17T14:40:32.364Z,1.25
2023-03-17T14:42:58.944Z,1.00
2023-03-17T14:45:48.577Z,0.85
2023-03-17T14:48:18.018Z,0.93
2023-03-17T14:50:55.852Z,1.00
2023-03-17T14:53:24.244Z,0.60
2023-03-17T14:55:52.825Z,0.70
2023-03-17T14:58:31.360Z,0.95
2023-03-17T15:01:15.051Z,1.30
2023-03-17T15:03:56.366Z,0.88
2023-03-17T15:06:29.952Z,0.55
2023-03-17T15:09:00.443Z,0.88
2023-03-17T15:11:36.834Z,0.95
2023-03-17T15:14:12.618Z,0.80
2023-03-17T15:16:40.900Z,1.10
2023-03-17T15:19:19.448Z,0.88
2023-03-17T15:21:46.297Z,0.82
2023-03-17T15:24:36.472Z,0.85
2023-03-17T15:27:11.261Z,1.33
2023-03-17T15:29:37.819Z,1.70
2023-03-17T15:32:12.765Z,1.25
2023-03-17T15:34:40.689Z,0.93
2023-03-17T15:37:17.576Z,1.35
2023-03-17T15:39:44.104Z,1.00
2023-03-17T15:42:11.097Z,1.00
2023-03-17T15:44:37.777Z,0.73
2023-03-17T15:47:04.993Z,0.95
2023-03-17T15:49:31.575Z,0.60
2023-03-17T15:51:58.120Z,0.95
2023-03-17T15:54:24.744Z,0.73
2023-03-17T15:56:51.507Z,1.13
2023-03-17T15:59:21.452Z,1.10
2023-03-17T16:01:49.436Z,0.60
2023-03-17T16:04:17.973Z,1.13
2023-03-17T16:06:44.738Z,0.98
2023-03-17T16:09:15.395Z,0.70
2023-03-17T16:11:41.986Z,0.85
2023-03-17T16:14:10.573Z,0.82
2023-03-17T16:16:40.976Z,1.38
2023-03-17T16:19:16.345Z,0.70
2023-03-17T16:21:43.355Z,0.60
2023-03-17T16:24:18.871Z,0.63
2023-03-17T16:26:45.672Z,0.80
2023-03-17T16:29:14.510Z,0.60
2023-03-17T16:31:41.406Z,0.43
2023-03-17T16:34:17.028Z,0.60
2023-03-17T16:36:44.080Z,1.15
2023-03-17T16:39:16.881Z,0.75
2023-03-17T16:41:46.048Z,0.60
2023-03-17T16:44:13.994Z,0.85
2023-03-17T16:46:44.814Z,1.00
2023-03-17T16:49:14.883Z,0.73
2023-03-17T16:51:42.039Z,0.50
2023-03-17T16:54:10.041Z,0.35
2023-03-17T16:56:38.587Z,0.90
2023-03-17T16:59:07.684Z,1.17
2023-03-17T17:01:34.689Z,0.50
2023-03-17T17:04:01.401Z,1.15
2023-03-17T17:06:28.084Z,1.27
2023-03-17T17:08:54.758Z,1.30
2023-03-17T17:11:21.652Z,1.50
2023-03-17T17:13:49.416Z,1.08
2023-03-17T17:16:29.329Z,0.90
2023-03-17T17:18:57.210Z,0.90
2023-03-17T17:21:23.876Z,0.95
2023-03-17T17:23:52.749Z,0.73
2023-03-17T17:26:19.696Z,1.15
2023-03-17T17:28:46.410Z,0.95
2023-03-17T17:31:13.032Z,1.17
2023-03-17T17:33:40.073Z,0.88
2023-03-17T17:36:12.723Z,0.88
2023-03-17T17:38:39.312Z,1.50
2023-03-17T17:41:07.034Z,0.80
2023-03-17T17:43:33.721Z,0.88
2023-03-17T17:46:00.994Z,0.60
2023-03-17T17:48:28.134Z,1.17
2023-03-17T17:50:56.179Z,1.73
2023-03-17T17:53:22.887Z,1.35
2023-03-17T17:55:49.932Z,1.80
2023-03-17T17:58:19.195Z,11.45
2023-03-17T18:00:46.215Z,5.63
2023-03-17T18:03:13.162Z,5.07
2023-03-17T18:05:39.856Z,1.75
2023-03-17T18:08:06.558Z,1.77
2023-03-17T18:10:34.332Z,1.10
2023-03-17T18:13:01.698Z,1.05
2023-03-17T18:15:28.722Z,1.35
2023-03-17T18:17:56.062Z,0.70
2023-03-17T18:20:23.634Z,0.98
2023-03-17T18:22:50.777Z,0.88
2023-03-17T18:25:18.078Z,0.75
2023-03-17T18:27:45.657Z,0.98
2023-03-17T18:30:18.734Z,0.80
2023-03-17T18:32:45.700Z,0.85
2023-03-17T18:35:16.534Z,0.80
2023-03-17T18:37:44.033Z,0.70
2023-03-17T18:40:15.368Z,1.17
2023-03-17T18:42:44.738Z,1.13
2023-03-17T18:45:12.136Z,1.08
2023-03-17T18:47:39.173Z,0.80
2023-03-17T18:50:08.083Z,0.80
2023-03-17T18:52:37.366Z,1.23
2023-03-17T18:55:04.518Z,1.27
2023-03-17T18:57:31.288Z,0.90
2023-03-17T18:59:57.859Z,2.10
2023-03-17T19:02:24.868Z,3.15
2023-03-17T19:04:51.460Z,1.17
2023-03-17T19:07:18.616Z,1.00
2023-03-17T19:09:45.326Z,1.27
2023-03-17T19:12:12.245Z,1.05
2023-03-17T19:14:39.098Z,1.40
2023-03-17T19:17:06.288Z,1.20
2023-03-17T19:19:33.914Z,1.23
2023-03-17T19:22:01.063Z,1.48
2023-03-17T19:24:27.601Z,1.23
2023-03-17T19:26:54.202Z,1.50
2023-03-17T19:29:20.923Z,0.98
2023-03-17T19:31:48.619Z,0.77
2023-03-17T19:34:15.458Z,1.65
2023-03-17T19:36:46.372Z,1.48
2023-03-17T19:39:14.050Z,1.67
2023-03-17T19:41:40.865Z,0.88
2023-03-17T19:44:07.809Z,1.17
2023-03-17T19:46:36.138Z,1.63
2023-03-17T19:49:03.150Z,0.85
2023-03-17T19:51:31.806Z,0.90
2023-03-17T19:53:58.470Z,1.75
2023-03-17T19:56:25.147Z,1.27
2023-03-17T19:58:51.992Z,1.33
2023-03-17T20:01:18.754Z,0.98
2023-03-17T20:03:45.780Z,1.30
2023-03-17T20:06:13.431Z,0.65
2023-03-17T20:08:41.212Z,1.75
2023-03-17T20:11:07.984Z,1.35
2023-03-17T20:13:35.846Z,1.15
2023-03-17T20:16:02.970Z,1.52
2023-03-17T20:18:29.815Z,1.15
2023-03-17T20:20:57.731Z,1.10
2023-03-17T20:23:25.173Z,1.45
2023-03-17T20:25:52.607Z,1.50
2023-03-17T20:28:21.478Z,1.42
2023-03-17T20:30:49.341Z,1.30
2023-03-17T20:33:16.793Z,1.83
2023-03-17T20:35:46.912Z,1.60
2023-03-17T20:38:14.694Z,0.70
2023-03-17T20:40:42.090Z,1.40
2023-03-17T20:43:09.471Z,0.70
2023-03-17T20:45:37.071Z,0.80
2023-03-17T20:48:06.084Z,1.42
2023-03-17T20:50:34.389Z,1.50
2023-03-17T20:53:01.704Z,1.60
2023-03-17T20:55:28.942Z,2.17
2023-03-17T20:57:58.703Z,0.82
2023-03-17T21:00:26.245Z,1.48
2023-03-17T21:02:53.240Z,2.05
2023-03-17T21:05:23.832Z,1.05
2023-03-17T21:07:50.917Z,2.30
2023-03-17T21:10:18.153Z,1.42
2023-03-17T21:12:45.380Z,1.17
2023-03-17T21:15:12.997Z,1.02
2023-03-17T21:17:40.228Z,0.82
2023-03-17T21:20:09.586Z,1.50
2023-03-17T21:22:36.977Z,1.52
2023-03-17T21:25:04.718Z,1.50
2023-03-17T21:27:31.407Z,1.67
2023-03-17T21:29:58.082Z,1.95
2023-03-17T21:32:25.071Z,1.73
2023-03-17T21:34:51.744Z,1.17
2023-03-17T21:37:18.847Z,1.20
2023-03-17T21:39:45.926Z,1.20
2023-03-17T21:42:12.874Z,1.63
2023-03-17T21:44:39.675Z,1.50
2023-03-17T21:47:07.682Z,1.52
2023-03-17T21:49:34.254Z,1.17
2023-03-17T21:52:01.296Z,2.05
2023-03-17T21:54:28.419Z,1.42
2023-03-17T21:56:54.937Z,2.08
2023-03-17T21:59:21.447Z,1.17
2023-03-17T22:01:52.082Z,1.70
2023-03-17T22:04:18.928Z,1.40
2023-03-17T22:06:45.541Z,1.65
2023-03-17T22:09:13.088Z,1.15
2023-03-17T22:11:39.624Z,1.88
2023-03-17T22:14:06.543Z,1.25
2023-03-17T22:16:33.221Z,2.03
2023-03-17T22:19:00.059Z,2.67
2023-03-17T22:21:26.697Z,1.60
2023-03-17T22:23:53.233Z,2.10
2023-03-17T22:26:21.810Z,1.60
2023-03-17T22:28:50.012Z,2.17
2023-03-17T22:31:19.858Z,1.98
2023-03-17T22:33:48.901Z,1.55
2023-03-17T22:36:15.851Z,1.65
2023-03-17T22:38:42.642Z,2.20
2023-03-17T22:41:13.068Z,1.83
2023-03-17T22:43:40.387Z,1.90
2023-03-17T22:46:07.526Z,1.50
2023-03-17T22:48:36.154Z,1.55
2023-03-17T22:51:04.411Z,2.42
2023-03-17T22:53:31.618Z,2.20
2023-03-17T22:55:59.003Z,2.15
2023-03-17T22:58:26.145Z,1.60
2023-03-17T23:00:53.762Z,2.47
2023-03-17T23:03:21.202Z,1.98
2023-03-17T23:05:49.709Z,1.73
2023-03-17T23:08:17.911Z,1.42
2023-03-17T23:10:45.579Z,1.40
2023-03-17T23:13:12.701Z,1.90
2023-03-17T23:15:39.624Z,2.45
2023-03-17T23:18:06.479Z,2.08
2023-03-17T23:20:33.760Z,2.22
2023-03-17T23:23:01.804Z,1.88
2023-03-17T23:25:28.334Z,3.22
2023-03-17T23:27:55.222Z,1.85
2023-03-17T23:30:21.913Z,2.45
2023-03-17T23:32:49.315Z,2.63
2023-03-17T23:35:16.568Z,2.55
2023-03-17T23:37:43.218Z,2.08
2023-03-17T23:40:13.706Z,2.30
2023-03-17T23:42:40.412Z,2.55
2023-03-17T23:45:08.626Z,2.55
2023-03-17T23:47:35.257Z,2.60
2023-03-17T23:50:02.295Z,1.95
2023-03-17T23:52:28.940Z,1.55
2023-03-17T23:54:55.523Z,2.78
2023-03-17T23:57:22.852Z,2.55
2023-03-17T23:59:49.534Z,2.72
